createdAt,value
2023-07-31T00:02:08.013Z,16.17
2023-07-31T00:04:37.783Z,16.22
2023-07-31T00:07:08.341Z,16.27
2023-07-31T00:09:38.128Z,16.33
2023-07-31T00:12:08.944Z,16.37
2023-07-31T00:14:38.752Z,16.39
2023-07-31T00:17:11.344Z,16.39
2023-07-31T00:19:41.199Z,16.40
2023-07-31T00:22:11.033Z,16.40
2023-07-31T00:24:40.867Z,16.42
2023-07-31T00:27:10.763Z,16.45
2023-07-31T00:29:40.566Z,16.48
2023-07-31T00:32:13.686Z,16.51
2023-07-31T00:34:43.572Z,16.52
2023-07-31T00:37:13.434Z,16.54
2023-07-31T00:39:44.531Z,16.58
2023-07-31T00:42:14.576Z,16.58
2023-07-31T00:44:45.196Z,16.58
2023-07-31T00:47:17.613Z,16.59
2023-07-31T00:49:47.936Z,16.60
2023-07-31T00:52:17.972Z,16.60
2023-07-31T00:54:47.751Z,16.62
2023-07-31T00:57:17.688Z,16.61
2023-07-31T00:59:48.209Z,16.61
2023-07-31T01:02:21.349Z,16.61
2023-07-31T01:04:51.433Z,16.60
2023-07-31T01:07:26.610Z,16.62
2023-07-31T01:10:01.613Z,16.62
2023-07-31T01:12:32.318Z,16.64
2023-07-31T01:15:12.241Z,16.65
2023-07-31T01:17:45.923Z,16.65
2023-07-31T01:20:18.112Z,16.64
2023-07-31T01:23:03.866Z,16.63
2023-07-31T01:25:50.886Z,16.61
2023-07-31T01:28:24.369Z,16.61
2023-07-31T01:30:54.341Z,16.62
2023-07-31T01:33:24.433Z,16.63
2023-07-31T01:35:54.663Z,16.61
2023-07-31T01:38:25.753Z,16.62
2023-07-31T01:40:58.207Z,16.66
2023-07-31T01:43:29.436Z,16.64
2023-07-31T01:45:59.591Z,16.63
2023-07-31T01:48:29.391Z,16.61
2023-07-31T01:50:59.454Z,16.61
2023-07-31T01:53:29.256Z,16.60
2023-07-31T01:56:01.794Z,16.61
2023-07-31T01:58:33.965Z,16.61
2023-07-31T02:01:03.834Z,16.61
2023-07-31T02:03:33.758Z,16.61
2023-07-31T02:06:03.700Z,16.62
2023-07-31T02:08:33.762Z,16.62
2023-07-31T02:11:06.203Z,16.64
2023-07-31T02:13:36.124Z,16.63
2023-07-31T02:16:06.158Z,16.64
2023-07-31T02:18:36.898Z,16.62
2023-07-31T02:21:06.734Z,16.61
2023-07-31T02:23:36.667Z,16.58
2023-07-31T02:26:09.066Z,16.58
2023-07-31T02:28:38.968Z,16.57
2023-07-31T02:31:08.768Z,16.57
2023-07-31T02:33:38.607Z,16.57
2023-07-31T02:36:08.825Z,16.58
2023-07-31T02:38:38.736Z,16.60
2023-07-31T02:41:12.537Z,16.61
2023-07-31T02:43:42.565Z,16.62
2023-07-31T02:46:12.499Z,16.62
2023-07-31T02:48:42.316Z,16.64
2023-07-31T02:51:12.163Z,16.63
2023-07-31T02:53:41.949Z,16.64
2023-07-31T02:56:14.401Z,16.66
2023-07-31T02:58:44.344Z,16.69
2023-07-31T03:01:14.171Z,16.71
2023-07-31T03:03:45.433Z,16.75
2023-07-31T03:06:15.619Z,16.80
2023-07-31T03:08:45.841Z,16.82
2023-07-31T03:11:18.220Z,16.84
2023-07-31T03:13:48.035Z,16.85
2023-07-31T03:16:18.020Z,16.84
2023-07-31T03:18:47.860Z,16.82
2023-07-31T03:21:18.705Z,16.80
2023-07-31T03:23:48.521Z,16.80
2023-07-31T03:26:21.038Z,16.80
2023-07-31T03:28:50.885Z,16.80
2023-07-31T03:31:20.694Z,16.80
2023-07-31T03:33:50.562Z,16.78
2023-07-31T03:36:20.397Z,16.78
2023-07-31T03:38:50.503Z,16.78
2023-07-31T03:41:23.842Z,16.77
2023-07-31T03:43:57.290Z,16.77
2023-07-31T03:46:27.562Z,16.78
2023-07-31T03:48:57.682Z,16.78
2023-07-31T03:51:27.588Z,16.79
2023-07-31T03:53:57.443Z,16.79
2023-07-31T03:56:30.439Z,16.80
2023-07-31T03:59:00.479Z,16.78
2023-07-31T04:01:30.350Z,16.78
2023-07-31T04:04:00.295Z,16.79
2023-07-31T04:06:30.053Z,16.78
2023-07-31T04:08:59.828Z,16.78
2023-07-31T04:11:32.190Z,16.75
2023-07-31T04:14:01.961Z,16.74
2023-07-31T04:16:31.873Z,16.72
2023-07-31T04:19:01.636Z,16.72
2023-07-31T04:21:31.408Z,16.72
2023-07-31T04:24:01.210Z,16.73
2023-07-31T04:26:33.590Z,16.74
2023-07-31T04:29:03.396Z,16.73
2023-07-31T04:31:33.199Z,16.73
2023-07-31T04:34:03.067Z,16.73
2023-07-31T04:36:32.827Z,16.72
2023-07-31T04:39:03.018Z,16.72
2023-07-31T04:41:35.372Z,16.72
2023-07-31T04:44:05.449Z,16.73
2023-07-31T04:46:35.278Z,16.75
2023-07-31T04:49:05.112Z,16.78
2023-07-31T04:51:34.963Z,16.80
2023-07-31T04:54:04.754Z,16.83
2023-07-31T04:56:37.468Z,16.85
2023-07-31T04:59:07.501Z,16.88
2023-07-31T05:01:37.336Z,16.92
2023-07-31T05:04:07.551Z,16.98
2023-07-31T05:06:37.598Z,17.03
2023-07-31T05:09:07.584Z,17.13
2023-07-31T05:11:41.496Z,17.25
2023-07-31T05:14:11.144Z,17.39
2023-07-31T05:16:41.236Z,17.51
2023-07-31T05:19:11.206Z,17.59
2023-07-31T05:21:41.001Z,17.65
2023-07-31T05:24:10.851Z,17.69
2023-07-31T05:26:43.212Z,17.71
2023-07-31T05:29:12.995Z,17.72
2023-07-31T05:31:42.767Z,17.74
2023-07-31T05:34:12.594Z,17.79
2023-07-31T05:36:42.564Z,17.81
2023-07-31T05:39:12.542Z,17.80
2023-07-31T05:41:44.920Z,17.79
2023-07-31T05:44:14.736Z,17.76
2023-07-31T05:46:44.811Z,17.74
2023-07-31T05:49:14.693Z,17.73
2023-07-31T05:51:44.426Z,17.72
2023-07-31T05:54:14.200Z,17.71
2023-07-31T05:56:46.730Z,17.68
2023-07-31T05:59:17.189Z,17.66
2023-07-31T06:01:47.139Z,17.66
2023-07-31T06:04:17.022Z,17.65
2023-07-31T06:06:47.039Z,17.64
2023-07-31T06:09:16.862Z,17.63
2023-07-31T06:11:49.256Z,17.61
2023-07-31T06:14:18.978Z,17.59
2023-07-31T06:16:48.782Z,17.57
2023-07-31T06:19:18.574Z,17.53
2023-07-31T06:21:48.383Z,17.49
2023-07-31T06:24:21.398Z,17.45
2023-07-31T06:26:53.782Z,17.38
2023-07-31T06:29:23.533Z,17.33
2023-07-31T06:31:53.347Z,17.31
2023-07-31T06:34:23.086Z,17.26
2023-07-31T06:36:52.855Z,17.23
2023-07-31T06:39:22.868Z,17.19
2023-07-31T06:41:55.180Z,17.14
2023-07-31T06:44:25.221Z,17.11
2023-07-31T06:46:54.998Z,17.07
2023-07-31T06:49:24.733Z,17.06
2023-07-31T06:51:54.594Z,17.06
2023-07-31T06:54:24.384Z,17.04
2023-07-31T06:56:56.741Z,17.05
2023-07-31T06:59:26.526Z,17.07
2023-07-31T07:01:56.299Z,17.12
2023-07-31T07:04:26.250Z,17.15
2023-07-31T07:06:53.477Z,17.19
2023-07-31T07:09:23.287Z,17.24
2023-07-31T07:11:53.053Z,17.27
2023-07-31T07:14:26.072Z,17.34
2023-07-31T07:16:55.938Z,17.37
2023-07-31T07:19:25.775Z,17.37
2023-07-31T07:21:55.561Z,17.36
2023-07-31T07:24:25.388Z,17.35
2023-07-31T07:26:55.265Z,17.33
2023-07-31T07:29:27.593Z,17.29
2023-07-31T07:31:57.891Z,17.24
2023-07-31T07:34:29.867Z,17.22
2023-07-31T07:36:59.698Z,17.21
2023-07-31T07:39:29.461Z,17.21
2023-07-31T07:41:59.195Z,17.17
2023-07-31T07:44:31.592Z,17.07
2023-07-31T07:47:01.352Z,17.02
2023-07-31T07:49:31.182Z,16.99
2023-07-31T07:52:01.109Z,16.99
2023-07-31T07:54:31.325Z,16.98
2023-07-31T07:57:01.118Z,16.96
2023-07-31T07:59:33.478Z,16.91
2023-07-31T08:02:03.240Z,16.87
2023-07-31T08:04:33.023Z,16.86
2023-07-31T08:07:02.923Z,16.85
2023-07-31T08:09:32.719Z,16.81
2023-07-31T08:12:04.602Z,16.78
2023-07-31T08:14:37.204Z,16.79
2023-07-31T08:17:07.687Z,16.80
2023-07-31T08:19:37.545Z,16.83
2023-07-31T08:22:07.777Z,16.85
2023-07-31T08:24:37.560Z,16.80
2023-07-31T08:27:07.941Z,16.77
2023-07-31T08:29:40.372Z,16.75
2023-07-31T08:32:10.825Z,16.70
2023-07-31T08:34:40.757Z,16.71
2023-07-31T08:37:10.653Z,16.79
2023-07-31T08:39:41.048Z,16.90
2023-07-31T08:42:12.202Z,17.00
2023-07-31T08:44:45.193Z,17.08
2023-07-31T08:47:15.132Z,17.18
2023-07-31T08:49:46.620Z,17.26
2023-07-31T08:52:16.385Z,17.33
2023-07-31T08:54:46.637Z,17.39
2023-07-31T08:57:16.449Z,17.44
2023-07-31T08:59:49.621Z,17.53
2023-07-31T09:02:19.532Z,17.65
2023-07-31T09:04:49.869Z,17.76
2023-07-31T09:07:19.753Z,17.82
2023-07-31T09:09:50.254Z,17.87
2023-07-31T09:12:20.403Z,17.89
2023-07-31T09:14:52.717Z,17.85
2023-07-31T09:17:32.967Z,17.80
2023-07-31T09:20:17.351Z,17.75
2023-07-31T09:22:48.541Z,17.74
2023-07-31T09:25:19.424Z,17.72
2023-07-31T09:27:53.325Z,17.61
2023-07-31T09:30:25.639Z,17.46
2023-07-31T09:33:03.903Z,17.24
2023-07-31T09:35:34.819Z,17.09
2023-07-31T09:38:09.086Z,17.01
2023-07-31T09:40:39.910Z,16.99
2023-07-31T09:43:11.574Z,17.01
2023-07-31T09:45:45.413Z,17.05
2023-07-31T09:48:17.355Z,17.13
2023-07-31T09:50:48.432Z,17.16
2023-07-31T09:53:19.551Z,17.19
2023-07-31T09:55:49.364Z,17.22
2023-07-31T09:58:19.176Z,17.30
2023-07-31T10:00:51.756Z,17.38
2023-07-31T10:03:21.907Z,17.47
2023-07-31T10:05:54.658Z,17.55
2023-07-31T10:08:25.958Z,17.64
2023-07-31T10:10:55.945Z,17.69
2023-07-31T10:13:25.754Z,17.68
2023-07-31T10:15:58.445Z,17.65
2023-07-31T10:18:28.919Z,17.62
2023-07-31T10:20:59.093Z,17.50
2023-07-31T10:23:28.910Z,17.36
2023-07-31T10:25:59.623Z,17.24
2023-07-31T10:28:30.294Z,17.20
2023-07-31T10:31:03.058Z,17.15
2023-07-31T10:33:33.049Z,17.16
2023-07-31T10:36:19.432Z,17.22
2023-07-31T10:38:49.420Z,17.28
2023-07-31T10:41:19.558Z,17.38
2023-07-31T10:43:50.037Z,17.49
2023-07-31T10:46:22.514Z,17.64
2023-07-31T10:49:01.538Z,17.82
2023-07-31T10:51:37.897Z,17.98
2023-07-31T10:54:19.317Z,18.20
2023-07-31T10:56:49.761Z,18.47
2023-07-31T10:59:21.487Z,18.74
2023-07-31T11:01:58.690Z,18.94
2023-07-31T11:04:29.079Z,19.09
2023-07-31T11:07:02.919Z,19.18
2023-07-31T11:09:34.061Z,19.21
2023-07-31T11:12:04.456Z,19.20
2023-07-31T11:14:34.205Z,19.15
2023-07-31T11:17:10.157Z,19.10
2023-07-31T11:19:42.020Z,19.09
2023-07-31T11:22:12.267Z,19.16
2023-07-31T11:24:42.076Z,19.23
2023-07-31T11:27:12.129Z,19.28
2023-07-31T11:29:41.983Z,19.33
2023-07-31T11:32:20.043Z,19.32
2023-07-31T11:34:59.167Z,19.32
2023-07-31T11:37:42.891Z,19.30
2023-07-31T11:40:13.854Z,19.26
2023-07-31T11:42:43.929Z,19.21
2023-07-31T11:45:14.242Z,19.22
2023-07-31T11:47:46.990Z,19.21
2023-07-31T11:50:16.848Z,19.24
2023-07-31T11:52:49.512Z,19.25
2023-07-31T11:55:19.419Z,19.27
2023-07-31T11:57:50.009Z,19.28
2023-07-31T12:00:20.456Z,19.21
2023-07-31T12:02:52.964Z,19.20
2023-07-31T12:05:23.338Z,19.21
2023-07-31T12:07:55.946Z,19.27
2023-07-31T12:10:29.957Z,19.34
2023-07-31T12:13:03.847Z,19.39
2023-07-31T12:15:41.178Z,19.38
2023-07-31T12:18:15.035Z,19.35
2023-07-31T12:20:45.703Z,19.28
2023-07-31T12:23:19.473Z,19.20
2023-07-31T12:25:49.027Z,19.20
2023-07-31T12:28:18.852Z,19.18
2023-07-31T12:30:49.474Z,19.16
2023-07-31T12:33:23.003Z,19.20
2023-07-31T12:35:52.838Z,19.27
2023-07-31T12:38:22.636Z,19.38
2023-07-31T12:40:52.418Z,19.44
2023-07-31T12:43:22.168Z,19.44
2023-07-31T12:45:52.064Z,19.40
2023-07-31T12:48:24.498Z,19.34
2023-07-31T12:50:54.376Z,19.32
2023-07-31T12:53:24.233Z,19.29
2023-07-31T12:55:54.137Z,19.34
2023-07-31T12:58:23.927Z,19.57
2023-07-31T13:00:53.736Z,19.91
2023-07-31T13:03:26.233Z,20.20
2023-07-31T13:05:56.358Z,20.33
2023-07-31T13:08:26.154Z,20.28
2023-07-31T13:10:55.945Z,20.29
2023-07-31T13:13:25.776Z,20.41
2023-07-31T13:15:55.765Z,20.52
2023-07-31T13:18:28.326Z,20.49
2023-07-31T13:20:58.068Z,20.43
2023-07-31T13:23:27.792Z,20.43
2023-07-31T13:25:57.818Z,20.40
2023-07-31T13:28:27.643Z,20.32
2023-07-31T13:30:57.443Z,20.24
2023-07-31T13:33:36.898Z,20.25
2023-07-31T13:36:07.544Z,20.36
2023-07-31T13:38:37.400Z,20.54
2023-07-31T13:41:07.308Z,20.76
2023-07-31T13:43:37.664Z,21.07
2023-07-31T13:46:08.648Z,21.43
2023-07-31T13:48:41.367Z,21.82
2023-07-31T13:51:11.123Z,22.10
2023-07-31T13:53:40.889Z,22.33
2023-07-31T13:56:10.754Z,22.48
2023-07-31T13:58:40.528Z,22.51
2023-07-31T14:01:10.370Z,22.44
2023-07-31T14:03:44.799Z,22.40
2023-07-31T14:06:16.743Z,22.34
2023-07-31T14:08:46.533Z,22.26
2023-07-31T14:11:16.383Z,22.12
2023-07-31T14:13:46.360Z,21.96
2023-07-31T14:16:16.235Z,21.76
2023-07-31T14:18:49.491Z,21.51
2023-07-31T14:21:20.718Z,21.30
2023-07-31T14:23:50.747Z,21.11
2023-07-31T14:26:20.728Z,20.95
2023-07-31T14:28:50.514Z,20.82
2023-07-31T14:31:20.366Z,20.74
2023-07-31T14:33:53.274Z,20.67
2023-07-31T14:36:24.465Z,20.57
2023-07-31T14:38:54.274Z,20.49
2023-07-31T14:41:24.026Z,20.43
2023-07-31T14:43:53.796Z,20.43
2023-07-31T14:46:23.551Z,20.43
2023-07-31T14:48:55.996Z,20.49
2023-07-31T14:51:25.738Z,20.58
2023-07-31T14:53:55.506Z,20.66
2023-07-31T14:56:25.268Z,20.65
2023-07-31T15:01:24.582Z,20.57
2023-07-31T15:03:57.001Z,20.56
2023-07-31T15:06:26.796Z,20.58
2023-07-31T15:08:56.569Z,20.59
2023-07-31T15:11:26.349Z,20.62
2023-07-31T15:13:56.097Z,20.61
2023-07-31T15:16:26.000Z,20.57
2023-07-31T15:18:58.559Z,20.51
2023-07-31T15:21:28.665Z,20.46
2023-07-31T15:23:59.131Z,20.43
2023-07-31T15:26:28.878Z,20.38
2023-07-31T15:29:01.978Z,20.33
2023-07-31T15:31:31.897Z,20.32
2023-07-31T15:34:04.517Z,20.30
2023-07-31T15:36:34.844Z,20.27
2023-07-31T15:39:04.771Z,20.25
2023-07-31T15:41:34.807Z,20.22
2023-07-31T15:44:05.153Z,20.20
2023-07-31T15:46:35.174Z,20.16
2023-07-31T15:49:07.624Z,20.11
2023-07-31T15:51:37.843Z,20.08
2023-07-31T15:54:07.604Z,20.07
2023-07-31T15:56:37.913Z,20.05
2023-07-31T15:59:08.181Z,19.99
2023-07-31T16:01:37.961Z,19.73
2023-07-31T16:04:10.465Z,19.51
2023-07-31T16:06:40.357Z,19.42
2023-07-31T16:09:10.121Z,19.40
2023-07-31T16:11:39.921Z,19.36
2023-07-31T16:14:09.657Z,19.33
2023-07-31T16:16:40.029Z,19.30
2023-07-31T16:19:12.676Z,19.25
2023-07-31T16:21:42.635Z,19.16
2023-07-31T16:24:12.791Z,19.01
2023-07-31T16:26:42.988Z,18.89
2023-07-31T16:29:12.998Z,18.82
2023-07-31T16:31:55.489Z,18.78
2023-07-31T16:34:29.342Z,18.71
2023-07-31T16:36:59.149Z,18.62
2023-07-31T16:39:29.110Z,18.56
2023-07-31T16:41:59.060Z,18.49
2023-07-31T16:44:28.822Z,18.46
2023-07-31T16:46:59.974Z,18.44
2023-07-31T16:49:32.351Z,18.42
2023-07-31T16:52:02.111Z,18.41
2023-07-31T16:54:33.611Z,18.38
2023-07-31T16:57:03.527Z,18.35
2023-07-31T16:59:33.300Z,18.32
2023-07-31T17:02:03.138Z,18.33
2023-07-31T17:04:35.667Z,18.34
2023-07-31T17:07:05.609Z,18.32
2023-07-31T17:09:35.375Z,18.28
2023-07-31T17:12:06.692Z,18.22
2023-07-31T17:14:36.476Z,18.15
2023-07-31T17:17:06.265Z,18.04
2023-07-31T17:19:38.586Z,17.91
2023-07-31T17:22:09.120Z,17.84
2023-07-31T17:24:38.844Z,17.77
2023-07-31T17:27:08.757Z,17.73
2023-07-31T17:29:38.614Z,17.70
2023-07-31T17:32:09.118Z,17.67
2023-07-31T17:34:41.510Z,17.59
2023-07-31T17:37:11.382Z,17.50
2023-07-31T17:39:41.162Z,17.39
2023-07-31T17:42:11.105Z,17.27
2023-07-31T17:44:40.941Z,17.16
2023-07-31T17:47:10.884Z,17.08
2023-07-31T17:49:43.288Z,17.02
2023-07-31T17:52:13.179Z,16.97
2023-07-31T17:54:43.033Z,16.91
2023-07-31T17:57:12.829Z,16.87
2023-07-31T17:59:44.323Z,16.81
2023-07-31T18:02:14.096Z,16.76
2023-07-31T18:04:46.936Z,16.70
2023-07-31T18:07:16.758Z,16.67
2023-07-31T18:09:47.059Z,16.61
2023-07-31T18:12:17.289Z,16.56
2023-07-31T18:14:47.133Z,16.53
2023-07-31T18:17:17.342Z,16.52
2023-07-31T18:19:49.711Z,16.49
2023-07-31T18:22:19.579Z,16.47
2023-07-31T18:24:49.512Z,16.46
2023-07-31T18:27:19.715Z,16.46
2023-07-31T18:29:49.630Z,16.45
2023-07-31T18:32:20.567Z,16.43
2023-07-31T18:34:53.075Z,16.42
2023-07-31T18:37:22.850Z,16.42
2023-07-31T18:39:52.843Z,16.42
2023-07-31T18:42:22.692Z,16.42
2023-07-31T18:44:54.601Z,16.41
2023-07-31T18:47:24.918Z,16.42
2023-07-31T18:49:57.348Z,16.42
2023-07-31T18:52:27.218Z,16.42
2023-07-31T18:54:57.094Z,16.42
2023-07-31T18:57:27.088Z,16.44
2023-07-31T18:59:56.890Z,16.45
2023-07-31T19:02:26.725Z,16.41
2023-07-31T19:04:59.272Z,16.38
2023-07-31T19:07:29.059Z,16.35
2023-07-31T19:10:14.872Z,16.33
2023-07-31T19:12:46.054Z,16.32
2023-07-31T19:15:15.825Z,16.30
2023-07-31T19:17:48.006Z,16.30
2023-07-31T19:20:21.249Z,16.29
2023-07-31T19:22:51.071Z,16.29
2023-07-31T19:25:20.875Z,16.29
2023-07-31T19:27:54.307Z,16.29
2023-07-31T19:30:27.383Z,16.28
2023-07-31T19:32:57.221Z,16.29
2023-07-31T19:35:29.980Z,16.27
2023-07-31T19:37:59.920Z,16.26
2023-07-31T19:40:29.839Z,16.28
2023-07-31T19:43:00.922Z,16.28
2023-07-31T19:45:31.236Z,16.28
2023-07-31T19:48:01.030Z,16.30
2023-07-31T19:50:33.467Z,16.32
2023-07-31T19:53:03.238Z,16.32
2023-07-31T19:55:33.499Z,16.34
2023-07-31T19:58:03.507Z,16.35
2023-07-31T20:00:33.294Z,16.37
2023-07-31T20:03:03.243Z,16.38
2023-07-31T20:05:38.213Z,16.39
2023-07-31T20:08:08.127Z,16.39
2023-07-31T20:10:38.421Z,16.41
2023-07-31T20:13:08.842Z,16.40
2023-07-31T20:15:39.004Z,16.41
2023-07-31T20:18:09.275Z,16.41
2023-07-31T20:20:41.662Z,16.41
2023-07-31T20:23:11.486Z,16.42
2023-07-31T20:25:41.271Z,16.43
2023-07-31T20:28:11.319Z,16.45
2023-07-31T20:30:41.152Z,16.46
2023-07-31T20:33:11.726Z,16.45
2023-07-31T20:35:44.138Z,16.45
2023-07-31T20:38:14.088Z,16.47
2023-07-31T20:40:45.696Z,16.47
2023-07-31T20:43:19.100Z,16.46
2023-07-31T20:45:49.054Z,16.46
2023-07-31T20:48:18.854Z,16.45
2023-07-31T20:50:51.585Z,16.46
2023-07-31T20:53:21.393Z,16.46
2023-07-31T20:55:51.235Z,16.45
2023-07-31T20:58:20.990Z,16.44
2023-07-31T21:00:50.829Z,16.43
2023-07-31T21:03:20.836Z,16.44
2023-07-31T21:05:58.592Z,16.45
2023-07-31T21:08:28.544Z,16.44
2023-07-31T21:10:58.402Z,16.43
2023-07-31T21:13:30.546Z,16.45
2023-07-31T21:16:03.879Z,16.46
2023-07-31T21:18:33.650Z,16.48
2023-07-31T21:21:05.975Z,16.49
2023-07-31T21:23:36.167Z,16.50
2023-07-31T21:26:05.924Z,16.51
2023-07-31T21:28:35.746Z,16.51
2023-07-31T21:31:12.689Z,16.53
2023-07-31T21:33:42.645Z,16.55
2023-07-31T21:36:15.015Z,16.55
2023-07-31T21:38:44.781Z,16.56
2023-07-31T21:41:14.676Z,16.56
2023-07-31T21:43:44.425Z,16.57
2023-07-31T21:46:14.493Z,16.59
2023-07-31T21:48:44.601Z,16.58
2023-07-31T21:51:17.066Z,16.59
2023-07-31T21:53:46.861Z,16.59
2023-07-31T21:56:16.920Z,16.60
2023-07-31T21:58:46.685Z,16.60
2023-07-31T22:01:18.328Z,16.59
2023-07-31T22:03:48.139Z,16.58
2023-07-31T22:06:20.494Z,16.60
2023-07-31T22:08:50.300Z,16.60
2023-07-31T22:11:21.608Z,16.60
2023-07-31T22:13:51.508Z,16.55
2023-07-31T22:16:21.507Z,16.48
2023-07-31T22:18:51.389Z,16.40
2023-07-31T22:21:23.786Z,16.35
2023-07-31T22:23:53.555Z,16.30
2023-07-31T22:26:23.514Z,16.26
2023-07-31T22:28:53.332Z,16.23
2023-07-31T22:31:23.222Z,16.19
2023-07-31T22:33:53.045Z,16.16
2023-07-31T22:36:25.554Z,16.12
2023-07-31T22:38:55.377Z,16.11
2023-07-31T22:41:25.158Z,16.10
2023-07-31T22:43:55.617Z,16.08
2023-07-31T22:46:25.534Z,16.07
2023-07-31T22:48:56.230Z,16.07
2023-07-31T22:51:28.604Z,16.06
2023-07-31T22:53:58.346Z,16.06
2023-07-31T22:56:28.232Z,16.05
2023-07-31T22:58:59.023Z,16.04
2023-07-31T23:01:29.557Z,16.04
2023-07-31T23:03:59.360Z,16.02
2023-07-31T23:06:31.817Z,16.01
2023-07-31T23:09:01.686Z,16.01
2023-07-31T23:11:31.551Z,16.02
2023-07-31T23:14:01.475Z,16.01
2023-07-31T23:16:31.257Z,16.02
2023-07-31T23:19:01.023Z,16.02
2023-07-31T23:21:34.116Z,16.01
2023-07-31T23:24:03.884Z,16.00
2023-07-31T23:26:33.672Z,16.01
2023-07-31T23:29:04.133Z,16.01
2023-07-31T23:31:33.950Z,15.99
2023-07-31T23:34:04.556Z,16.01
2023-07-31T23:36:36.889Z,16.00
2023-07-31T23:39:06.908Z,16.00
2023-07-31T23:41:36.667Z,16.01
2023-07-31T23:44:06.874Z,16.02
2023-07-31T23:46:36.632Z,16.00
2023-07-31T23:49:06.394Z,16.01
2023-07-31T23:51:39.054Z,16.01
2023-07-31T23:54:09.017Z,16.02
2023-07-31T23:56:39.252Z,16.02
2023-07-31T23:59:10.105Z,16.03
